Time;durP1;ratioP1;P1;durP2;ratioP2;P2;SDS_P1;SDS_P2;PMS_P1;PMS_P2;Temp;Humidity;BMP_temperature;BMP_pressure;BME280_temperature;BME280_humidity;BME280_pressure;Samples;Min_cycle;Max_cycle;Signal;HPM_P1;HPM_P2
2023/08/31 00:00:53;;;;;;;2.45;0.60;;;11.50;99.90;;;;;;5023391;28;20085;-63
2023/08/31 00:03:19;;;;;;;1.95;0.57;;;11.50;99.90;;;;;;5026188;28;20487;-62
2023/08/31 00:05:45;;;;;;;4.47;0.55;;;11.50;99.90;;;;;;5023840;28;20040;-62
2023/08/31 00:08:14;;;;;;;4.70;0.45;;;11.40;99.90;;;;;;5026853;28;20050;-63
2023/08/31 00:10:39;;;;;;;1.80;0.57;;;11.40;99.90;;;;;;5018230;28;20091;-63
2023/08/31 00:13:08;;;;;;;5.25;0.60;;;11.40;99.90;;;;;;5025361;28;20049;-62
2023/08/31 00:15:35;;;;;;;3.20;0.70;;;11.40;99.90;;;;;;5025033;28;20034;-63
2023/08/31 00:18:03;;;;;;;1.17;0.43;;;11.40;99.90;;;;;;5023175;28;20438;-63
2023/08/31 00:20:30;;;;;;;1.73;0.40;;;11.30;99.90;;;;;;5026471;28;20145;-62
2023/08/31 00:22:56;;;;;;;2.10;0.52;;;11.30;99.90;;;;;;5025382;28;20045;-63
2023/08/31 00:25:22;;;;;;;3.88;0.68;;;11.30;99.90;;;;;;5025627;28;20095;-62
2023/08/31 00:27:48;;;;;;;1.15;0.50;;;11.30;99.90;;;;;;5026204;28;20508;-63
2023/08/31 00:30:14;;;;;;;2.92;0.60;;;11.30;99.90;;;;;;5022166;28;20132;-63
2023/08/31 00:32:43;;;;;;;1.10;0.40;;;11.30;99.90;;;;;;5027876;28;20495;-63
2023/08/31 00:35:09;;;;;;;0.70;0.60;;;11.20;99.90;;;;;;5012480;28;20417;-63
2023/08/31 00:37:35;;;;;;;3.42;0.52;;;11.20;99.90;;;;;;5028946;28;20099;-62
2023/08/31 00:40:01;;;;;;;2.00;0.50;;;11.20;99.90;;;;;;5029259;28;20041;-62
2023/08/31 00:42:29;;;;;;;0.90;0.60;;;11.10;99.90;;;;;;5028497;28;20503;-63
2023/08/31 00:44:55;;;;;;;0.98;0.70;;;11.10;99.90;;;;;;5028349;28;20395;-63
2023/08/31 00:47:21;;;;;;;2.35;0.60;;;11.10;99.90;;;;;;5029617;28;20033;-63
2023/08/31 00:49:48;;;;;;;4.03;0.90;;;11.10;99.90;;;;;;5027915;28;20049;-63
2023/08/31 00:52:13;;;;;;;2.10;0.75;;;11.10;99.90;;;;;;5029472;28;20605;-63
2023/08/31 00:54:42;;;;;;;0.95;0.70;;;11.10;99.90;;;;;;5028585;28;20041;-63
2023/08/31 00:57:08;;;;;;;2.40;1.08;;;11.10;99.90;;;;;;5029775;28;20069;-63
2023/08/31 00:59:34;;;;;;;5.20;1.10;;;11.10;99.90;;;;;;5027679;28;20096;-62
2023/08/31 01:02:24;;;;;;;2.85;0.85;;;11.10;99.90;;;;;;5027625;28;20131;-63
2023/08/31 01:05:12;;;;;;;1.60;0.90;;;11.10;99.90;;;;;;5029609;28;20099;-62
2023/08/31 01:07:52;;;;;;;1.73;1.00;;;11.00;99.90;;;;;;5027499;28;20041;-63
2023/08/31 01:10:21;;;;;;;;;;;11.10;99.90;;;;;;5029390;28;20045;-63
2023/08/31 01:12:52;;;;;;;2.42;0.70;;;11.00;99.90;;;;;;5027704;28;20371;-63
2023/08/31 01:15:18;;;;;;;1.48;0.70;;;11.00;99.90;;;;;;5027044;28;20049;-63
2023/08/31 01:17:50;;;;;;;4.78;0.90;;;11.00;99.90;;;;;;5029231;28;20060;-63
2023/08/31 01:20:42;;;;;;;8.13;1.10;;;11.00;99.90;;;;;;5027932;28;20045;-63
2023/08/31 01:23:16;;;;;;;1.42;0.70;;;11.00;99.90;;;;;;5022836;28;20523;-63
2023/08/31 01:25:43;;;;;;;2.90;0.75;;;11.00;99.90;;;;;;5022891;28;20061;-63
2023/08/31 01:28:10;;;;;;;1.60;0.88;;;10.90;99.90;;;;;;5027193;28;20072;-63
2023/08/31 01:30:35;;;;;;;2.85;1.00;;;10.90;99.90;;;;;;5029245;28;20038;-62
2023/08/31 01:33:02;;;;;;;2.05;1.10;;;10.90;99.90;;;;;;5026927;28;20045;-63
2023/08/31 01:35:34;;;;;;;2.33;1.00;;;10.90;99.90;;;;;;5028888;28;20045;-62
2023/08/31 01:38:02;;;;;;;3.88;1.00;;;10.90;99.90;;;;;;5027243;28;20518;-62
2023/08/31 01:40:36;;;;;;;2.95;0.95;;;10.90;99.90;;;;;;5028055;28;20045;-62
2023/08/31 01:43:05;;;;;;;2.20;0.77;;;10.90;99.90;;;;;;5027115;28;20052;-62
2023/08/31 01:45:37;;;;;;;2.42;0.82;;;10.90;99.90;;;;;;5026145;28;20038;-62
2023/08/31 01:48:06;;;;;;;2.53;0.90;;;11.00;99.90;;;;;;5028173;28;20127;-62
2023/08/31 01:50:32;;;;;;;1.20;0.88;;;11.00;99.90;;;;;;5026150;28;20121;-62
2023/08/31 01:52:58;;;;;;;2.05;0.68;;;10.90;99.90;;;;;;5028151;28;20133;-62
2023/08/31 01:55:26;;;;;;;6.22;1.25;;;11.00;99.90;;;;;;5027407;28;20501;-62
2023/08/31 01:57:52;;;;;;;3.65;0.77;;;11.00;99.90;;;;;;5027684;28;20049;-62
2023/08/31 02:00:19;;;;;;;3.78;0.85;;;10.90;99.90;;;;;;5028366;28;20449;-63
2023/08/31 02:02:44;;;;;;;1.17;0.63;;;11.00;99.90;;;;;;5026855;28;20467;-63
2023/08/31 02:05:10;;;;;;;4.82;1.02;;;10.90;99.90;;;;;;5027789;28;20091;-63
2023/08/31 02:07:36;;;;;;;3.67;0.80;;;10.90;99.90;;;;;;5025645;28;20034;-62
2023/08/31 02:10:06;;;;;;;2.90;0.90;;;10.90;99.90;;;;;;5026602;28;20179;-62
2023/08/31 02:12:32;;;;;;;2.33;0.80;;;10.90;99.90;;;;;;5026874;28;20121;-62
2023/08/31 02:14:57;;;;;;;5.90;1.17;;;10.90;99.90;;;;;;5027833;28;20504;-63
2023/08/31 02:17:23;;;;;;;5.97;0.95;;;10.90;99.90;;;;;;5027908;28;20125;-62
2023/08/31 02:19:49;;;;;;;10.63;1.00;;;10.90;99.90;;;;;;5025263;28;20057;-63
2023/08/31 02:22:15;;;;;;;2.20;0.85;;;10.90;99.90;;;;;;5027576;28;20053;-62
2023/08/31 02:24:41;;;;;;;1.08;0.95;;;10.80;99.90;;;;;;5026584;28;20445;-62
2023/08/31 02:27:07;;;;;;;1.23;0.70;;;10.90;99.90;;;;;;5027227;28;20056;-63
2023/08/31 02:29:32;;;;;;;1.20;0.77;;;10.80;99.90;;;;;;5025658;28;20057;-62
2023/08/31 02:31:58;;;;;;;1.35;0.60;;;10.80;99.90;;;;;;5028031;28;20156;-63
2023/08/31 02:34:24;;;;;;;5.03;0.82;;;10.80;99.90;;;;;;5026908;28;20549;-62
2023/08/31 02:36:49;;;;;;;4.95;0.90;;;10.80;99.90;;;;;;5027179;28;20531;-62
2023/08/31 02:39:16;;;;;;;3.78;0.90;;;10.70;99.90;;;;;;5027559;28;20045;-63
2023/08/31 02:41:41;;;;;;;1.85;0.68;;;10.80;99.90;;;;;;5025614;28;20564;-62
2023/08/31 02:44:07;;;;;;;6.47;0.93;;;10.70;99.90;;;;;;5025965;28;20080;-63
2023/08/31 02:46:33;;;;;;;2.67;1.00;;;10.70;99.90;;;;;;5026266;28;20200;-62
2023/08/31 02:48:59;;;;;;;3.85;0.95;;;10.60;99.90;;;;;;5027279;28;20388;-63
2023/08/31 02:51:24;;;;;;;2.50;0.82;;;10.60;99.90;;;;;;5025565;28;20187;-62
2023/08/31 02:53:50;;;;;;;4.15;0.82;;;10.60;99.90;;;;;;5027570;28;20563;-63
2023/08/31 02:56:16;;;;;;;3.22;0.82;;;10.60;99.90;;;;;;5025355;28;20045;-63
2023/08/31 02:58:41;;;;;;;3.20;0.63;;;10.60;99.90;;;;;;5024876;28;20192;-63
2023/08/31 03:01:11;;;;;;;4.47;0.80;;;10.60;99.90;;;;;;5026460;28;20404;-62
2023/08/31 03:03:38;;;;;;;;;;;10.60;99.90;;;;;;5026291;28;20527;-63
2023/08/31 03:06:05;;;;;;;2.53;0.75;;;10.60;99.90;;;;;;5026971;28;19925;-63
2023/08/31 03:08:31;;;;;;;4.53;0.65;;;10.60;99.90;;;;;;5025651;28;20042;-63
2023/08/31 03:10:58;;;;;;;3.08;0.60;;;10.60;99.90;;;;;;5027499;28;20044;-63
2023/08/31 03:13:23;;;;;;;3.15;1.05;;;10.60;99.90;;;;;;5026030;28;20049;-62
2023/08/31 03:15:49;;;;;;;7.32;0.80;;;10.50;99.90;;;;;;5026876;28;20359;-63
2023/08/31 03:18:15;;;;;;;0.70;0.70;;;10.60;99.90;;;;;;5026531;28;20045;-62
2023/08/31 03:20:41;;;;;;;3.60;0.70;;;10.50;99.90;;;;;;5025788;28;20076;-63
2023/08/31 03:23:09;;;;;;;1.38;0.60;;;10.60;99.90;;;;;;5026678;28;20458;-63
2023/08/31 03:25:35;;;;;;;4.80;0.47;;;10.60;99.90;;;;;;5025573;28;20156;-63
2023/08/31 03:28:00;;;;;;;2.35;1.00;;;10.60;99.90;;;;;;5026803;28;21047;-63
2023/08/31 03:30:26;;;;;;;1.60;0.75;;;10.60;99.90;;;;;;5025485;28;20037;-63
2023/08/31 03:32:52;;;;;;;1.65;0.68;;;10.60;99.90;;;;;;5026495;28;20395;-63
2023/08/31 03:35:17;;;;;;;2.00;0.68;;;10.60;99.90;;;;;;5026156;28;20045;-63
2023/08/31 03:37:46;;;;;;;3.67;0.82;;;10.60;99.90;;;;;;5025516;28;20045;-63
2023/08/31 03:40:12;;;;;;;9.80;1.00;;;10.50;99.90;;;;;;5026848;28;20402;-63
2023/08/31 03:42:38;;;;;;;4.82;0.65;;;10.60;99.90;;;;;;5024168;28;20115;-63
2023/08/31 03:45:04;;;;;;;0.68;0.68;;;10.60;99.90;;;;;;5026938;28;20049;-63
2023/08/31 03:47:30;;;;;;;2.65;0.90;;;10.50;99.90;;;;;;5025894;28;20045;-63
2023/08/31 03:49:56;;;;;;;0.88;0.73;;;10.50;99.90;;;;;;5025033;28;20050;-62
2023/08/31 03:52:23;;;;;;;1.55;0.65;;;10.60;99.90;;;;;;5025686;28;20045;-63
2023/08/31 03:54:49;;;;;;;6.65;0.68;;;10.50;99.90;;;;;;5025658;28;20042;-63
2023/08/31 03:57:15;;;;;;;3.17;0.90;;;10.50;99.90;;;;;;5026789;28;20049;-63
2023/08/31 03:59:41;;;;;;;3.10;0.98;;;10.60;99.90;;;;;;5023628;28;20527;-63
2023/08/31 04:02:06;;;;;;;7.55;0.90;;;10.50;99.90;;;;;;5026189;28;20120;-63
2023/08/31 04:04:33;;;;;;;4.32;0.90;;;10.60;99.90;;;;;;5020201;28;20053;-63
2023/08/31 04:06:59;;;;;;;1.60;0.65;;;10.60;99.90;;;;;;5030463;28;20059;-63
2023/08/31 04:09:25;;;;;;;2.20;0.82;;;10.60;99.90;;;;;;5028757;28;20116;-63
2023/08/31 04:11:51;;;;;;;2.58;0.90;;;10.60;99.90;;;;;;5030545;28;20092;-63
2023/08/31 04:14:18;;;;;;;4.43;1.30;;;10.60;99.90;;;;;;5029447;28;20041;-62
2023/08/31 04:16:45;;;;;;;2.15;1.00;;;10.60;99.90;;;;;;5029692;28;20040;-63
2023/08/31 04:19:10;;;;;;;1.10;0.75;;;10.60;99.90;;;;;;5028668;28;20045;-62
2023/08/31 04:21:37;;;;;;;3.03;0.90;;;10.60;99.90;;;;;;5028746;28;20103;-63
2023/08/31 04:24:03;;;;;;;2.05;1.00;;;10.60;99.90;;;;;;5024537;28;20180;-62
2023/08/31 04:26:29;;;;;;;9.07;1.35;;;10.60;99.90;;;;;;5028155;28;20578;-62
2023/08/31 04:28:56;;;;;;;5.80;1.05;;;10.60;99.90;;;;;;5030347;28;20046;-63
2023/08/31 04:31:22;;;;;;;5.03;1.50;;;10.60;99.90;;;;;;5028965;28;20450;-63
2023/08/31 04:33:48;;;;;;;5.03;1.30;;;10.60;99.90;;;;;;5029896;28;20042;-63
2023/08/31 04:36:13;;;;;;;2.03;1.05;;;10.60;99.90;;;;;;5029237;28;20453;-63
2023/08/31 04:38:39;;;;;;;5.13;1.23;;;10.60;99.90;;;;;;5028993;28;20124;-63
2023/08/31 04:41:05;;;;;;;4.00;1.20;;;10.60;99.90;;;;;;5030275;28;20037;-63
2023/08/31 04:43:31;;;;;;;2.58;1.20;;;10.60;99.90;;;;;;5010297;28;20479;-62
2023/08/31 04:45:57;;;;;;;1.92;1.10;;;10.50;99.90;;;;;;5029815;28;20045;-63
2023/08/31 04:48:23;;;;;;;1.55;0.90;;;10.50;99.90;;;;;;5028186;28;20081;-63
2023/08/31 04:50:48;;;;;;;1.98;1.10;;;10.60;99.90;;;;;;5030026;28;20049;-63
2023/08/31 04:53:14;;;;;;;4.60;1.15;;;10.50;99.90;;;;;;5029317;28;20094;-63
2023/08/31 04:55:40;;;;;;;3.17;1.10;;;10.50;99.90;;;;;;5027547;28;20084;-63
2023/08/31 04:58:05;;;;;;;2.88;0.95;;;10.60;99.90;;;;;;5029796;28;20124;-63
2023/08/31 05:00:31;;;;;;;4.57;1.05;;;10.60;99.90;;;;;;5025561;28;20050;-63
2023/08/31 05:02:57;;;;;;;2.35;1.15;;;10.60;99.90;;;;;;5029475;28;20064;-62
2023/08/31 05:05:23;;;;;;;3.55;1.13;;;10.60;99.90;;;;;;5027482;28;20037;-63
2023/08/31 05:07:48;;;;;;;4.88;1.80;;;10.60;99.90;;;;;;5029802;28;20120;-63
2023/08/31 05:10:14;;;;;;;3.33;1.02;;;10.60;99.90;;;;;;5027547;28;20128;-62
2023/08/31 05:12:40;;;;;;;6.80;1.23;;;10.70;99.90;;;;;;5028912;28;20124;-62
2023/08/31 05:15:06;;;;;;;2.17;1.00;;;10.70;99.90;;;;;;5028073;28;20475;-62
2023/08/31 05:17:32;;;;;;;1.25;1.10;;;10.70;99.90;;;;;;5027763;28;20045;-62
2023/08/31 05:19:58;;;;;;;4.60;1.13;;;10.80;99.90;;;;;;5029523;28;20518;-62
2023/08/31 05:22:24;;;;;;;2.35;1.10;;;10.80;99.90;;;;;;5027692;28;20483;-63
2023/08/31 05:24:49;;;;;;;3.15;1.10;;;10.80;99.90;;;;;;5028049;28;20079;-63
2023/08/31 05:27:15;;;;;;;5.63;1.30;;;10.90;99.90;;;;;;5018660;28;20420;-62
2023/08/31 05:29:41;;;;;;;1.73;1.15;;;11.00;99.90;;;;;;5027546;28;20052;-62
2023/08/31 05:32:06;;;;;;;3.55;1.42;;;11.00;99.90;;;;;;5028270;28;20053;-62
2023/08/31 05:34:37;;;;;;;2.97;1.60;;;11.00;99.90;;;;;;5027762;28;20092;-63
2023/08/31 05:37:04;;;;;;;3.97;1.50;;;11.00;99.90;;;;;;5029169;28;20121;-63
2023/08/31 05:39:30;;;;;;;3.88;1.30;;;11.10;99.90;;;;;;5026808;28;20068;-63
2023/08/31 05:41:56;;;;;;;1.80;1.27;;;11.10;99.90;;;;;;5029095;28;20042;-62
2023/08/31 05:44:23;;;;;;;2.15;1.20;;;11.20;99.90;;;;;;5027249;28;20042;-63
2023/08/31 05:46:48;;;;;;;3.03;1.42;;;11.20;99.90;;;;;;5029089;28;20079;-62
2023/08/31 05:49:14;;;;;;;4.00;1.60;;;11.20;99.90;;;;;;5027154;28;20038;-63
2023/08/31 05:51:40;;;;;;;4.80;1.27;;;11.20;99.90;;;;;;5027773;28;20479;-63
2023/08/31 05:54:10;;;;;;;1.63;1.30;;;11.20;99.90;;;;;;5010816;28;20052;-63
2023/08/31 05:56:36;;;;;;;3.88;1.45;;;11.30;99.90;;;;;;5025549;28;20049;-63
2023/08/31 05:59:02;;;;;;;2.08;1.35;;;11.30;99.90;;;;;;5027633;28;20514;-63
2023/08/31 06:01:27;;;;;;;3.45;1.60;;;11.30;99.90;;;;;;5025200;28;20081;-63
2023/08/31 06:03:53;;;;;;;5.05;1.30;;;11.40;99.90;;;;;;5027878;28;20084;-63
2023/08/31 06:06:19;;;;;;;6.15;1.52;;;11.40;99.90;;;;;;5009541;28;20045;-63
2023/08/31 06:08:45;;;;;;;2.50;1.48;;;11.40;99.90;;;;;;5027684;28;20042;-63
2023/08/31 06:11:10;;;;;;;2.47;1.33;;;11.50;99.90;;;;;;5026739;28;20061;-62
2023/08/31 06:13:37;;;;;;;3.42;1.25;;;11.50;99.90;;;;;;5026826;28;20041;-63
2023/08/31 06:16:03;;;;;;;4.30;1.58;;;11.50;99.90;;;;;;5008824;28;20040;-63
2023/08/31 06:18:29;;;;;;;8.52;1.48;;;11.60;99.90;;;;;;5026777;28;20578;-63
2023/08/31 06:20:54;;;;;;;2.10;1.40;;;11.60;99.90;;;;;;5027049;28;20051;-62
2023/08/31 06:23:20;;;;;;;4.47;1.48;;;11.60;99.90;;;;;;5026343;28;20050;-62
2023/08/31 06:25:46;;;;;;;2.88;1.50;;;11.60;99.90;;;;;;5025592;28;20042;-62
2023/08/31 06:28:12;;;;;;;5.43;1.30;;;11.70;99.90;;;;;;5027398;28;20037;-62
2023/08/31 06:30:38;;;;;;;4.45;1.48;;;11.70;99.90;;;;;;5025382;28;20179;-62
2023/08/31 06:33:04;;;;;;;3.92;1.25;;;11.80;99.90;;;;;;5026997;28;20496;-62
2023/08/31 06:35:33;;;;;;;3.70;1.30;;;11.80;99.90;;;;;;5026375;28;20098;-62
2023/08/31 06:37:59;;;;;;;2.83;1.40;;;11.90;99.90;;;;;;5027637;28;20045;-62
2023/08/31 06:40:25;;;;;;;4.18;1.63;;;11.90;99.90;;;;;;5026429;28;20060;-62
2023/08/31 06:42:50;;;;;;;3.97;1.17;;;12.00;99.90;;;;;;5027143;28;20029;-61
2023/08/31 06:45:16;;;;;;;2.80;1.05;;;12.10;99.90;;;;;;5026900;28;20038;-62
2023/08/31 06:47:42;;;;;;;3.95;1.45;;;12.20;99.90;;;;;;5026887;28;20580;-62
2023/08/31 06:50:08;;;;;;;3.08;1.40;;;12.30;99.90;;;;;;5027939;28;20045;-61
2023/08/31 06:52:34;;;;;;;6.18;1.63;;;12.40;99.90;;;;;;5026145;28;20044;-63
2023/08/31 06:55:00;;;;;;;3.88;1.27;;;12.50;99.90;;;;;;5027530;28;20049;-62
2023/08/31 06:57:27;;;;;;;2.75;1.13;;;12.60;99.90;;;;;;5024662;28;20628;-63
2023/08/31 06:59:53;;;;;;;3.00;1.13;;;12.80;99.90;;;;;;5025719;28;20056;-62
2023/08/31 07:02:21;;;;;;;1.38;0.90;;;13.00;99.90;;;;;;5026363;28;20130;-63
2023/08/31 07:04:48;;;;;;;5.65;1.40;;;13.20;99.90;;;;;;5027185;28;20048;-63
2023/08/31 07:07:14;;;;;;;3.95;1.23;;;13.50;99.90;;;;;;5017043;28;20086;-63
2023/08/31 07:09:43;;;;;;;7.10;1.35;;;13.80;99.90;;;;;;5025645;28;20076;-63
2023/08/31 07:12:10;;;;;;;4.35;1.33;;;14.10;99.90;;;;;;5027856;28;20550;-63
2023/08/31 07:14:36;;;;;;;8.00;1.20;;;14.30;99.90;;;;;;5025986;28;20447;-63
2023/08/31 07:17:02;;;;;;;3.22;0.98;;;14.70;99.90;;;;;;5027687;28;20057;-63
2023/08/31 07:19:28;;;;;;;7.10;1.02;;;14.90;99.90;;;;;;5024656;28;20095;-63
2023/08/31 07:21:56;;;;;;;6.03;0.90;;;15.20;99.90;;;;;;5027330;28;20045;-63
2023/08/31 07:24:23;;;;;;;7.30;1.27;;;15.40;99.90;;;;;;5026089;28;20103;-63
2023/08/31 07:26:50;;;;;;;5.03;1.20;;;15.60;99.90;;;;;;5026734;28;20050;-63
2023/08/31 07:29:16;;;;;;;2.75;0.75;;;15.80;99.90;;;;;;5026309;28;20052;-63
2023/08/31 07:31:42;;;;;;;3.92;0.82;;;16.00;99.90;;;;;;5025379;28;20033;-63
2023/08/31 07:34:07;;;;;;;4.15;1.08;;;16.20;99.90;;;;;;5027647;28;20425;-63
2023/08/31 07:36:33;;;;;;;5.30;1.00;;;16.50;99.90;;;;;;5024871;28;20084;-63
2023/08/31 07:38:59;;;;;;;3.75;0.70;;;16.70;99.90;;;;;;5026705;28;20107;-63
2023/08/31 07:41:25;;;;;;;5.15;0.52;;;16.90;99.90;;;;;;5025997;28;20050;-63
2023/08/31 07:43:51;;;;;;;0.77;0.60;;;17.10;99.90;;;;;;5025370;28;20053;-63
2023/08/31 07:46:18;;;;;;;3.92;0.80;;;17.20;99.90;;;;;;5009033;28;20049;-63
2023/08/31 07:48:43;;;;;;;8.13;1.20;;;17.40;99.90;;;;;;5024559;28;20049;-65
2023/08/31 07:51:09;;;;;;;3.58;0.90;;;17.50;99.90;;;;;;5009426;28;20486;-63
2023/08/31 07:53:35;;;;;;;2.15;0.70;;;17.60;99.90;;;;;;5025347;28;20072;-63
2023/08/31 07:56:01;;;;;;;3.20;0.70;;;17.60;99.90;;;;;;5026773;28;20411;-63
2023/08/31 07:58:27;;;;;;;2.90;0.90;;;17.60;99.90;;;;;;5025426;28;20495;-63
2023/08/31 08:00:54;;;;;;;3.60;0.85;;;17.60;99.90;;;;;;5026384;28;20108;-63
2023/08/31 08:03:20;;;;;;;4.28;0.70;;;17.50;99.90;;;;;;5024411;28;20049;-63
2023/08/31 08:05:47;;;;;;;4.38;0.52;;;17.70;99.90;;;;;;5026262;28;20037;-63
2023/08/31 08:08:12;;;;;;;4.47;0.70;;;17.80;99.90;;;;;;5027049;28;20052;-63
2023/08/31 08:10:38;;;;;;;3.55;0.60;;;18.00;99.90;;;;;;5025273;28;20049;-63
2023/08/31 08:13:04;;;;;;;2.67;0.63;;;18.10;99.90;;;;;;5025173;28;20045;-64
2023/08/31 08:15:31;;;;;;;3.90;0.82;;;18.20;99.90;;;;;;5025805;28;20054;-63
2023/08/31 08:17:59;;;;;;;2.42;0.60;;;18.40;99.90;;;;;;5026923;28;20041;-63
2023/08/31 08:20:25;;;;;;;1.35;0.45;;;18.30;95.40;;;;;;5024215;28;20079;-63
2023/08/31 08:22:54;;;;;;;2.17;0.60;;;18.30;99.40;;;;;;5025004;28;20073;-63
2023/08/31 08:25:20;;;;;;;0.17;0.17;;;18.40;98.20;;;;;;5026743;28;20045;-63
2023/08/31 08:27:47;;;;;;;2.90;0.30;;;18.40;99.90;;;;;;5024904;28;20067;-63
2023/08/31 08:30:13;;;;;;;4.50;0.93;;;18.50;96.90;;;;;;5026912;28;20038;-63
2023/08/31 08:32:39;;;;;;;1.80;0.45;;;18.50;94.60;;;;;;5025260;28;20561;-63
2023/08/31 08:35:05;;;;;;;4.47;0.80;;;18.70;98.90;;;;;;5023371;28;20042;-63
2023/08/31 08:37:34;;;;;;;5.30;1.00;;;18.70;94.70;;;;;;5021742;28;20109;-63
2023/08/31 08:40:00;;;;;;;1.33;0.40;;;18.90;93.90;;;;;;5017934;28;20115;-63
2023/08/31 08:42:28;;;;;;;3.67;0.55;;;18.80;82.60;;;;;;5024491;28;20045;-63
2023/08/31 08:44:56;;;;;;;0.55;0.35;;;18.50;70.90;;;;;;5024594;28;20111;-63
2023/08/31 08:47:22;;;;;;;5.78;0.80;;;18.30;91.90;;;;;;5025022;28;20067;-63
2023/08/31 08:49:48;;;;;;;7.28;0.52;;;18.10;89.60;;;;;;5024494;28;20040;-63
2023/08/31 08:52:15;;;;;;;0.75;0.30;;;17.90;94.40;;;;;;5009386;28;20079;-63
2023/08/31 08:54:41;;;;;;;3.30;0.57;;;17.50;84.00;;;;;;5026698;28;20047;-63
2023/08/31 08:57:07;;;;;;;1.08;0.38;;;17.20;91.00;;;;;;5027484;28;20049;-63
2023/08/31 08:59:33;;;;;;;1.85;0.38;;;16.90;90.10;;;;;;5024274;28;20301;-63
2023/08/31 09:01:59;;;;;;;2.58;0.63;;;16.70;92.70;;;;;;5023097;28;20049;-63
2023/08/31 09:04:25;;;;;;;2.17;0.50;;;16.70;95.80;;;;;;5029236;28;20056;-63
2023/08/31 09:06:51;;;;;;;1.75;0.68;;;16.80;93.10;;;;;;5041805;28;20045;-63
2023/08/31 09:09:17;;;;;;;0.47;0.30;;;17.10;96.40;;;;;;5028798;28;20095;-62
2023/08/31 09:11:43;;;;;;;0.40;0.40;;;17.40;99.90;;;;;;5026478;28;20045;-62
2023/08/31 09:14:19;;;;;;;1.80;0.40;;;17.80;99.90;;;;;;5028043;28;20038;-62
2023/08/31 09:16:50;;;;;;;4.20;0.40;;;18.10;99.90;;;;;;5020754;28;20045;-62
2023/08/31 09:19:21;;;;;;;2.03;0.47;;;18.10;94.40;;;;;;5038919;28;20107;-62
2023/08/31 09:21:51;;;;;;;0.98;0.50;;;17.90;81.40;;;;;;5026505;28;20041;-62
2023/08/31 09:24:18;;;;;;;0.73;0.35;;;17.50;77.80;;;;;;5026770;28;20049;-62
2023/08/31 09:26:57;;;;;;;1.98;0.47;;;17.10;78.30;;;;;;5028350;28;20429;-63
2023/08/31 09:29:24;;;;;;;5.50;0.65;;;16.80;84.10;;;;;;5027729;28;20483;-62
2023/08/31 09:31:50;;;;;;;1.63;0.55;;;16.60;87.90;;;;;;5026914;28;20041;-63
2023/08/31 09:34:16;;;;;;;2.80;0.50;;;16.60;91.80;;;;;;5027087;28;20373;-62
2023/08/31 09:36:43;;;;;;;3.47;0.52;;;16.90;96.30;;;;;;5026708;28;20113;-62
2023/08/31 09:39:09;;;;;;;2.75;0.30;;;17.20;99.90;;;;;;5027618;28;20499;-62
2023/08/31 09:41:51;;;;;;;1.33;0.20;;;17.50;97.90;;;;;;5026869;28;20495;-63
2023/08/31 09:44:19;;;;;;;3.25;0.95;;;17.60;95.90;;;;;;5024258;28;20091;-63
2023/08/31 09:46:45;;;;;;;1.55;0.47;;;17.60;91.10;;;;;;5026653;28;20045;-63
2023/08/31 09:49:15;;;;;;;0.82;0.30;;;17.60;87.50;;;;;;5027449;28;20045;-62
2023/08/31 09:51:45;;;;;;;2.83;0.47;;;17.70;91.00;;;;;;5028628;28;20552;-63
2023/08/31 09:54:15;;;;;;;1.80;0.40;;;17.80;91.50;;;;;;5026776;28;20059;-62
2023/08/31 09:56:46;;;;;;;0.40;0.40;;;18.10;93.10;;;;;;5028648;28;20037;-63
2023/08/31 09:59:14;;;;;;;1.63;0.40;;;18.30;83.50;;;;;;5022248;28;20057;-62
2023/08/31 10:01:41;;;;;;;0.50;0.40;;;18.60;82.90;;;;;;5027095;28;20053;-63
2023/08/31 10:04:08;;;;;;;2.28;0.50;;;18.80;75.00;;;;;;5026331;28;20176;-63
2023/08/31 10:06:39;;;;;;;1.15;0.40;;;18.90;67.50;;;;;;5026149;28;20497;-63
2023/08/31 10:09:06;;;;;;;1.08;0.40;;;18.80;63.60;;;;;;5027314;28;20068;-62
2023/08/31 10:11:32;;;;;;;2.05;0.30;;;18.70;70.10;;;;;;5026386;28;20038;-62
2023/08/31 10:13:58;;;;;;;2.70;0.50;;;18.90;87.30;;;;;;5027651;28;20049;-62
2023/08/31 10:16:27;;;;;;;2.05;0.20;;;19.20;90.00;;;;;;5026401;28;20068;-63
2023/08/31 10:18:54;;;;;;;2.80;0.45;;;19.50;78.90;;;;;;5026788;28;20096;-63
2023/08/31 10:21:20;;;;;;;0.38;0.38;;;19.70;68.00;;;;;;5025527;28;20436;-63
2023/08/31 10:23:50;;;;;;;6.95;0.80;;;19.70;54.50;;;;;;5019344;28;20728;-63
2023/08/31 10:26:30;;;;;;;4.22;1.20;;;19.20;33.30;;;;;;5022128;28;20270;-63
2023/08/31 10:28:57;;;;;;;4.07;0.80;;;17.80;48.00;;;;;;5019301;28;20597;-61
2023/08/31 10:31:24;;;;;;;0.65;0.30;;;17.00;75.90;;;;;;5027929;28;20099;-61
2023/08/31 10:34:15;;;;;;;2.80;0.63;;;16.60;86.40;;;;;;5026420;28;20041;-61
2023/08/31 10:36:44;;;;;;;1.23;0.45;;;16.20;95.40;;;;;;5026471;28;20056;-61
2023/08/31 10:39:19;;;;;;;3.47;0.60;;;16.10;99.90;;;;;;5026031;28;20049;-62
2023/08/31 10:41:55;;;;;;;4.70;0.60;;;16.00;99.90;;;;;;5026608;28;20487;-62
2023/08/31 10:44:23;;;;;;;1.50;0.80;;;16.00;99.90;;;;;;5025547;28;20059;-61
2023/08/31 10:46:49;;;;;;;1.42;0.43;;;16.00;99.90;;;;;;5024496;28;20084;-61
2023/08/31 10:49:17;;;;;;;1.50;0.70;;;16.10;99.90;;;;;;5023528;28;22130;-61
2023/08/31 10:52:17;;;;;;;4.50;0.70;;;16.40;99.90;;;;;;5025684;28;20057;-62
2023/08/31 10:54:43;;;;;;;2.50;0.60;;;16.70;99.90;;;;;;5026681;28;20052;-62
2023/08/31 10:57:11;;;;;;;0.90;0.40;;;17.00;99.90;;;;;;5023156;28;20037;-62
2023/08/31 10:59:53;;;;;;;0.70;0.70;;;17.10;99.90;;;;;;5026497;28;20049;-62
2023/08/31 11:02:41;;;;;;;1.05;0.60;;;17.20;99.90;;;;;;5018555;28;20066;-62
2023/08/31 11:05:08;;;;;;;1.85;0.80;;;17.20;99.90;;;;;;5020559;28;20175;-62
2023/08/31 11:07:35;;;;;;;3.58;2.33;;;17.10;99.90;;;;;;5026300;28;20128;-62
2023/08/31 11:10:14;;;;;;;3.00;0.70;;;17.00;99.90;;;;;;5023783;28;20147;-61
2023/08/31 11:12:41;;;;;;;3.20;0.50;;;16.90;99.90;;;;;;5024671;28;20118;-62
2023/08/31 11:15:07;;;;;;;3.15;0.68;;;16.60;99.90;;;;;;5023265;28;20132;-61
2023/08/31 11:17:34;;;;;;;2.35;0.32;;;16.30;99.90;;;;;;5025165;28;20064;-62
2023/08/31 11:20:01;;;;;;;2.72;0.47;;;16.10;99.90;;;;;;5026857;28;20054;-61
2023/08/31 11:22:27;;;;;;;4.07;0.47;;;15.90;99.90;;;;;;5024058;28;20128;-63
2023/08/31 11:24:53;;;;;;;1.00;0.40;;;15.70;99.90;;;;;;4991380;28;20620;-63
2023/08/31 11:27:21;;;;;;;1.25;0.30;;;15.60;99.90;;;;;;5008525;28;20038;-62
2023/08/31 11:29:47;;;;;;;0.68;0.30;;;15.50;99.90;;;;;;5024849;28;20122;-62
2023/08/31 11:32:13;;;;;;;1.27;0.52;;;15.50;99.90;;;;;;5025963;28;20073;-62
2023/08/31 11:34:44;;;;;;;1.08;0.30;;;15.50;99.90;;;;;;5021940;28;20064;-62
2023/08/31 11:37:15;;;;;;;1.05;0.40;;;15.50;99.90;;;;;;5024550;28;20057;-62
2023/08/31 11:39:53;;;;;;;4.68;0.40;;;15.50;99.90;;;;;;5025069;28;20045;-62
2023/08/31 11:42:21;;;;;;;4.22;0.90;;;15.60;99.90;;;;;;5024680;28;20113;-63
2023/08/31 11:44:52;;;;;;;1.88;0.60;;;15.80;99.90;;;;;;5026765;28;20118;-63
2023/08/31 11:47:20;;;;;;;0.65;0.32;;;16.00;99.90;;;;;;5022243;28;20403;-62
2023/08/31 11:49:46;;;;;;;2.88;0.50;;;16.40;99.90;;;;;;5026128;28;20487;-62
2023/08/31 11:52:13;;;;;;;3.63;0.70;;;16.80;99.90;;;;;;5023513;28;20430;-62
2023/08/31 11:54:40;;;;;;;1.10;0.43;;;17.20;99.90;;;;;;5026376;28;20060;-63
2023/08/31 11:57:09;;;;;;;0.57;0.40;;;17.40;99.90;;;;;;5025553;28;20053;-62
2023/08/31 11:59:36;;;;;;;;;;;17.50;99.90;;;;;;5024544;28;20593;-62
2023/08/31 12:02:05;;;;;;;20.27;1.95;;;17.40;99.90;;;;;;5024243;28;19996;-63
2023/08/31 12:04:31;;;;;;;5.20;0.97;;;17.00;99.90;;;;;;5023408;28;20057;-62
2023/08/31 12:07:06;;;;;;;0.63;0.57;;;16.60;99.90;;;;;;5024797;28;20052;-62
2023/08/31 12:09:32;;;;;;;0.95;0.50;;;16.20;99.90;;;;;;5014641;28;20045;-62
2023/08/31 12:12:00;;;;;;;1.15;0.55;;;15.90;99.90;;;;;;5026310;28;20114;-62
2023/08/31 12:14:27;;;;;;;4.00;1.00;;;15.70;99.90;;;;;;5018242;28;20601;-61
2023/08/31 12:17:01;;;;;;;2.53;0.70;;;15.40;99.90;;;;;;5025777;28;20468;-61
2023/08/31 12:19:29;;;;;;;1.55;0.70;;;15.40;99.90;;;;;;5025368;28;20464;-62
2023/08/31 12:21:55;;;;;;;1.55;0.43;;;15.30;99.90;;;;;;5022523;28;20591;-61
2023/08/31 12:24:22;;;;;;;1.83;0.50;;;15.30;99.90;;;;;;5026337;28;20053;-61
2023/08/31 12:26:49;;;;;;;3.53;0.63;;;15.30;99.90;;;;;;5010936;28;20069;-61
2023/08/31 12:29:15;;;;;;;4.63;0.70;;;15.30;99.90;;;;;;5029344;28;20120;-61
2023/08/31 12:31:41;;;;;;;5.47;0.52;;;15.30;99.90;;;;;;5013876;28;20179;-61
2023/08/31 12:34:07;;;;;;;0.40;0.35;;;15.30;99.90;;;;;;5020868;28;20102;-61
2023/08/31 12:36:41;;;;;;;0.35;0.35;;;15.40;99.90;;;;;;5029071;28;20499;-61
2023/08/31 12:39:10;;;;;;;1.02;0.60;;;15.50;99.90;;;;;;5024662;28;20501;-61
2023/08/31 12:41:39;;;;;;;0.65;0.38;;;15.60;99.90;;;;;;5026187;28;20045;-61
2023/08/31 12:44:06;;;;;;;2.28;0.50;;;15.80;99.90;;;;;;5026673;28;20152;-61
2023/08/31 12:46:32;;;;;;;1.42;0.52;;;16.00;99.90;;;;;;5027385;28;20045;-61
2023/08/31 12:49:00;;;;;;;1.20;0.52;;;16.30;99.90;;;;;;4993449;28;20601;-61